sensor_id;sensor_type;location;lat;lon;timestamp;temperature;humidity
59162;DHT22;44942;48.936;8.260;2023-11-18T00:00:57;21.20;57.50
59162;DHT22;44942;48.936;8.260;2023-11-18T00:05:58;21.20;57.30
59162;DHT22;44942;48.936;8.260;2023-11-18T00:11:00;21.30;57.30
59162;DHT22;44942;48.936;8.260;2023-11-18T00:16:00;21.30;57.30
59162;DHT22;44942;48.936;8.260;2023-11-18T00:21:01;21.30;57.30
59162;DHT22;44942;48.936;8.260;2023-11-18T00:26:02;21.30;57.40
59162;DHT22;44942;48.936;8.260;2023-11-18T00:31:03;21.40;57.90
59162;DHT22;44942;48.936;8.260;2023-11-18T00:36:05;21.30;57.40
59162;DHT22;44942;48.936;8.260;2023-11-18T00:41:07;21.40;57.50
59162;DHT22;44942;48.936;8.260;2023-11-18T00:46:07;21.40;57.50
59162;DHT22;44942;48.936;8.260;2023-11-18T00:51:08;21.40;57.50
59162;DHT22;44942;48.936;8.260;2023-11-18T00:56:15;21.20;57.30
59162;DHT22;44942;48.936;8.260;2023-11-18T01:01:16;21.10;56.90
59162;DHT22;44942;48.936;8.260;2023-11-18T01:06:19;21.20;56.80
59162;DHT22;44942;48.936;8.260;2023-11-18T01:11:20;21.20;56.70
59162;DHT22;44942;48.936;8.260;2023-11-18T01:16:20;21.30;56.80
59162;DHT22;44942;48.936;8.260;2023-11-18T01:21:21;21.30;56.90
59162;DHT22;44942;48.936;8.260;2023-11-18T01:26:22;21.30;57.70
59162;DHT22;44942;48.936;8.260;2023-11-18T01:31:23;21.30;56.90
59162;DHT22;44942;48.936;8.260;2023-11-18T01:36:24;21.40;57.10
59162;DHT22;44942;48.936;8.260;2023-11-18T01:41:24;21.30;57.00
59162;DHT22;44942;48.936;8.260;2023-11-18T01:46:25;21.30;57.00
59162;DHT22;44942;48.936;8.260;2023-11-18T01:51:26;21.40;57.00
59162;DHT22;44942;48.936;8.260;2023-11-18T01:56:27;21.40;57.00
59162;DHT22;44942;48.936;8.260;2023-11-18T02:01:28;21.40;57.00
59162;DHT22;44942;48.936;8.260;2023-11-18T02:06:30;21.40;57.00
59162;DHT22;44942;48.936;8.260;2023-11-18T02:11:42;21.40;57.10
59162;DHT22;44942;48.936;8.260;2023-11-18T02:16:49;21.40;57.80
59162;DHT22;44942;48.936;8.260;2023-11-18T02:21:52;21.40;57.10
59162;DHT22;44942;48.936;8.260;2023-11-18T02:26:58;21.40;57.20
59162;DHT22;44942;48.936;8.260;2023-11-18T02:32:17;21.40;57.20
59162;DHT22;44942;48.936;8.260;2023-11-18T02:37:24;21.40;57.10
59162;DHT22;44942;48.936;8.260;2023-11-18T02:42:25;21.40;57.20
59162;DHT22;44942;48.936;8.260;2023-11-18T02:47:26;21.40;57.10
59162;DHT22;44942;48.936;8.260;2023-11-18T02:52:27;21.40;57.10
59162;DHT22;44942;48.936;8.260;2023-11-18T02:57:28;21.10;56.60
59162;DHT22;44942;48.936;8.260;2023-11-18T03:02:29;21.10;56.30
59162;DHT22;44942;48.936;8.260;2023-11-18T03:07:31;21.20;56.20
59162;DHT22;44942;48.936;8.260;2023-11-18T03:12:31;21.20;56.30
59162;DHT22;44942;48.936;8.260;2023-11-18T03:17:32;21.20;56.40
59162;DHT22;44942;48.936;8.260;2023-11-18T03:22:34;21.20;56.40
59162;DHT22;44942;48.936;8.260;2023-11-18T03:27:34;21.30;56.50
59162;DHT22;44942;48.936;8.260;2023-11-18T03:32:35;21.30;56.50
59162;DHT22;44942;48.936;8.260;2023-11-18T03:37:40;21.30;56.50
59162;DHT22;44942;48.936;8.260;2023-11-18T03:42:41;21.30;56.50
59162;DHT22;44942;48.936;8.260;2023-11-18T03:47:42;21.30;56.60
59162;DHT22;44942;48.936;8.260;2023-11-18T03:52:43;21.30;56.60
59162;DHT22;44942;48.936;8.260;2023-11-18T03:57:43;21.30;56.60
59162;DHT22;44942;48.936;8.260;2023-11-18T04:02:46;21.30;56.60
59162;DHT22;44942;48.936;8.260;2023-11-18T04:07:47;21.30;56.60
59162;DHT22;44942;48.936;8.260;2023-11-18T04:12:47;21.30;56.50
59162;DHT22;44942;48.936;8.260;2023-11-18T04:17:48;21.30;56.60
59162;DHT22;44942;48.936;8.260;2023-11-18T04:22:49;21.30;56.60
59162;DHT22;44942;48.936;8.260;2023-11-18T04:27:49;21.30;56.50
59162;DHT22;44942;48.936;8.260;2023-11-18T04:32:50;21.30;56.50
59162;DHT22;44942;48.936;8.260;2023-11-18T04:37:52;21.30;56.50
59162;DHT22;44942;48.936;8.260;2023-11-18T04:42:53;21.30;56.50
59162;DHT22;44942;48.936;8.260;2023-11-18T04:47:54;21.30;56.50
59162;DHT22;44942;48.936;8.260;2023-11-18T04:52:54;21.30;56.40
59162;DHT22;44942;48.936;8.260;2023-11-18T04:57:55;21.00;55.90
59162;DHT22;44942;48.936;8.260;2023-11-18T05:02:56;21.00;55.50
59162;DHT22;44942;48.936;8.260;2023-11-18T05:07:57;21.10;55.50
59162;DHT22;44942;48.936;8.260;2023-11-18T05:12:58;21.10;55.50
59162;DHT22;44942;48.936;8.260;2023-11-18T05:17:59;21.20;55.60
59162;DHT22;44942;48.936;8.260;2023-11-18T05:22:59;21.20;55.70
59162;DHT22;44942;48.936;8.260;2023-11-18T05:28:00;21.20;55.70
59162;DHT22;44942;48.936;8.260;2023-11-18T05:33:03;21.20;55.70
59162;DHT22;44942;48.936;8.260;2023-11-18T05:38:05;21.20;55.80
59162;DHT22;44942;48.936;8.260;2023-11-18T05:43:06;21.20;55.80
59162;DHT22;44942;48.936;8.260;2023-11-18T05:48:16;21.20;55.80
59162;DHT22;44942;48.936;8.260;2023-11-18T05:53:16;21.20;55.80
59162;DHT22;44942;48.936;8.260;2023-11-18T05:58:17;21.20;55.80
59162;DHT22;44942;48.936;8.260;2023-11-18T06:03:18;21.20;55.90
59162;DHT22;44942;48.936;8.260;2023-11-18T06:08:18;21.20;55.90
59162;DHT22;44942;48.936;8.260;2023-11-18T06:13:19;21.20;55.90
59162;DHT22;44942;48.936;8.260;2023-11-18T06:18:19;21.20;55.90
59162;DHT22;44942;48.936;8.260;2023-11-18T06:23:20;21.30;55.90
59162;DHT22;44942;48.936;8.260;2023-11-18T06:28:21;21.20;55.90
59162;DHT22;44942;48.936;8.260;2023-11-18T06:33:22;21.30;56.00
59162;DHT22;44942;48.936;8.260;2023-11-18T06:38:23;21.30;56.00
59162;DHT22;44942;48.936;8.260;2023-11-18T06:43:25;21.20;55.90
59162;DHT22;44942;48.936;8.260;2023-11-18T06:48:26;21.20;56.00
59162;DHT22;44942;48.936;8.260;2023-11-18T06:53:26;21.20;55.70
59162;DHT22;44942;48.936;8.260;2023-11-18T06:58:27;21.00;55.40
59162;DHT22;44942;48.936;8.260;2023-11-18T07:03:28;21.00;55.20
59162;DHT22;44942;48.936;8.260;2023-11-18T07:08:28;21.10;55.20
59162;DHT22;44942;48.936;8.260;2023-11-18T07:13:32;21.10;55.10
59162;DHT22;44942;48.936;8.260;2023-11-18T07:18:35;21.10;55.30
59162;DHT22;44942;48.936;8.260;2023-11-18T07:23:35;21.10;55.30
59162;DHT22;44942;48.936;8.260;2023-11-18T07:28:36;21.10;55.40
59162;DHT22;44942;48.936;8.260;2023-11-18T07:33:37;21.20;56.20
59162;DHT22;44942;48.936;8.260;2023-11-18T07:38:38;21.20;55.40
59162;DHT22;44942;48.936;8.260;2023-11-18T07:43:39;21.20;55.50
59162;DHT22;44942;48.936;8.260;2023-11-18T07:48:41;21.20;55.50
59162;DHT22;44942;48.936;8.260;2023-11-18T07:53:41;21.20;55.60
59162;DHT22;44942;48.936;8.260;2023-11-18T07:58:43;21.20;55.70
59162;DHT22;44942;48.936;8.260;2023-11-18T08:03:46;21.20;55.80
59162;DHT22;44942;48.936;8.260;2023-11-18T08:08:47;21.20;55.70
59162;DHT22;44942;48.936;8.260;2023-11-18T08:13:48;21.20;55.80
59162;DHT22;44942;48.936;8.260;2023-11-18T08:18:49;21.20;55.90
59162;DHT22;44942;48.936;8.260;2023-11-18T08:23:49;21.20;55.90
59162;DHT22;44942;48.936;8.260;2023-11-18T08:28:50;21.30;56.00
59162;DHT22;44942;48.936;8.260;2023-11-18T08:33:52;21.20;56.00
59162;DHT22;44942;48.936;8.260;2023-11-18T08:38:54;21.20;56.10
59162;DHT22;44942;48.936;8.260;2023-11-18T08:43:56;21.30;56.10
59162;DHT22;44942;48.936;8.260;2023-11-18T08:48:57;21.30;56.10
59162;DHT22;44942;48.936;8.260;2023-11-18T08:53:58;21.20;55.90
59162;DHT22;44942;48.936;8.260;2023-11-18T08:58:58;21.00;55.60
59162;DHT22;44942;48.936;8.260;2023-11-18T09:03:59;21.00;55.50
59162;DHT22;44942;48.936;8.260;2023-11-18T09:09:02;21.10;55.50
59162;DHT22;44942;48.936;8.260;2023-11-18T09:14:06;21.10;55.40
59162;DHT22;44942;48.936;8.260;2023-11-18T09:19:08;21.20;55.40
59162;DHT22;44942;48.936;8.260;2023-11-18T09:24:09;21.20;55.40
59162;DHT22;44942;48.936;8.260;2023-11-18T09:29:16;21.20;55.40
59162;DHT22;44942;48.936;8.260;2023-11-18T09:34:18;21.20;55.40
59162;DHT22;44942;48.936;8.260;2023-11-18T09:39:27;21.20;55.40
59162;DHT22;44942;48.936;8.260;2023-11-18T09:44:37;21.20;55.40
59162;DHT22;44942;48.936;8.260;2023-11-18T09:49:44;21.20;55.30
59162;DHT22;44942;48.936;8.260;2023-11-18T09:55:03;21.20;55.20
59162;DHT22;44942;48.936;8.260;2023-11-18T10:00:06;21.10;55.10
59162;DHT22;44942;48.936;8.260;2023-11-18T10:05:45;21.10;55.20
59162;DHT22;44942;48.936;8.260;2023-11-18T10:10:46;21.20;55.30
59162;DHT22;44942;48.936;8.260;2023-11-18T10:15:46;21.20;55.30
59162;DHT22;44942;48.936;8.260;2023-11-18T10:20:49;21.20;55.50
59162;DHT22;44942;48.936;8.260;2023-11-18T10:25:58;21.20;55.70
59162;DHT22;44942;48.936;8.260;2023-11-18T10:31:05;21.20;55.90
59162;DHT22;44942;48.936;8.260;2023-11-18T10:36:06;21.30;56.10
59162;DHT22;44942;48.936;8.260;2023-11-18T10:41:18;21.30;56.20
59162;DHT22;44942;48.936;8.260;2023-11-18T10:46:19;21.30;56.30
59162;DHT22;44942;48.936;8.260;2023-11-18T10:51:21;21.30;56.50
59162;DHT22;44942;48.936;8.260;2023-11-18T10:56:27;21.30;56.40
59162;DHT22;44942;48.936;8.260;2023-11-18T11:01:33;21.40;56.50
59162;DHT22;44942;48.936;8.260;2023-11-18T11:06:34;21.40;56.50
59162;DHT22;44942;48.936;8.260;2023-11-18T11:11:49;21.40;56.50
59162;DHT22;44942;48.936;8.260;2023-11-18T11:16:54;21.40;56.20
59162;DHT22;44942;48.936;8.260;2023-11-18T11:22:05;21.40;56.20
59162;DHT22;44942;48.936;8.260;2023-11-18T11:27:33;21.40;56.30
59162;DHT22;44942;48.936;8.260;2023-11-18T11:32:52;21.50;56.50
59162;DHT22;44942;48.936;8.260;2023-11-18T11:37:53;21.50;56.50
59162;DHT22;44942;48.936;8.260;2023-11-18T11:42:58;21.50;56.50
59162;DHT22;44942;48.936;8.260;2023-11-18T11:48:06;21.50;56.40
59162;DHT22;44942;48.936;8.260;2023-11-18T11:53:34;21.50;56.90
59162;DHT22;44942;48.936;8.260;2023-11-18T11:58:41;21.30;55.90
59162;DHT22;44942;48.936;8.260;2023-11-18T12:03:46;21.30;55.70
59162;DHT22;44942;48.936;8.260;2023-11-18T12:08:48;21.40;55.70
59162;DHT22;44942;48.936;8.260;2023-11-18T12:14:08;21.50;55.80
59162;DHT22;44942;48.936;8.260;2023-11-18T12:19:32;21.50;55.80
59162;DHT22;44942;48.936;8.260;2023-11-18T12:24:37;21.50;55.90
59162;DHT22;44942;48.936;8.260;2023-11-18T12:29:44;21.60;56.00
59162;DHT22;44942;48.936;8.260;2023-11-18T12:34:53;21.60;56.00
59162;DHT22;44942;48.936;8.260;2023-11-18T12:40:23;21.60;56.00
59162;DHT22;44942;48.936;8.260;2023-11-18T12:45:51;21.60;56.00
59162;DHT22;44942;48.936;8.260;2023-11-18T12:51:01;21.60;56.00
59162;DHT22;44942;48.936;8.260;2023-11-18T12:56:01;21.40;55.80
59162;DHT22;44942;48.936;8.260;2023-11-18T13:01:03;21.30;55.50
59162;DHT22;44942;48.936;8.260;2023-11-18T13:06:04;21.40;55.50
59162;DHT22;44942;48.936;8.260;2023-11-18T13:11:06;21.50;55.70
59162;DHT22;44942;48.936;8.260;2023-11-18T13:16:12;21.60;55.60
59162;DHT22;44942;48.936;8.260;2023-11-18T13:21:15;21.60;55.60
59162;DHT22;44942;48.936;8.260;2023-11-18T13:26:17;21.60;55.70
59162;DHT22;44942;48.936;8.260;2023-11-18T13:31:19;21.60;55.70
59162;DHT22;44942;48.936;8.260;2023-11-18T13:36:20;21.60;55.70
59162;DHT22;44942;48.936;8.260;2023-11-18T13:41:31;21.70;55.70
59162;DHT22;44942;48.936;8.260;2023-11-18T13:46:32;21.60;55.80
59162;DHT22;44942;48.936;8.260;2023-11-18T13:51:33;21.60;55.70
59162;DHT22;44942;48.936;8.260;2023-11-18T13:56:35;21.50;55.60
59162;DHT22;44942;48.936;8.260;2023-11-18T14:01:36;21.40;55.40
59162;DHT22;44942;48.936;8.260;2023-11-18T14:06:37;21.50;55.40
59162;DHT22;44942;48.936;8.260;2023-11-18T14:11:40;21.60;55.50
59162;DHT22;44942;48.936;8.260;2023-11-18T14:16:41;21.60;55.40
59162;DHT22;44942;48.936;8.260;2023-11-18T14:21:42;21.60;55.60
59162;DHT22;44942;48.936;8.260;2023-11-18T14:26:43;21.60;55.80
59162;DHT22;44942;48.936;8.260;2023-11-18T14:31:44;21.60;55.80
59162;DHT22;44942;48.936;8.260;2023-11-18T14:36:45;21.70;55.90
59162;DHT22;44942;48.936;8.260;2023-11-18T14:41:46;21.70;55.90
59162;DHT22;44942;48.936;8.260;2023-11-18T14:46:46;21.70;56.10
59162;DHT22;44942;48.936;8.260;2023-11-18T14:51:47;21.70;56.10
59162;DHT22;44942;48.936;8.260;2023-11-18T14:56:48;21.50;55.90
59162;DHT22;44942;48.936;8.260;2023-11-18T15:01:49;21.50;55.70
59162;DHT22;44942;48.936;8.260;2023-11-18T15:06:50;21.50;55.70
59162;DHT22;44942;48.936;8.260;2023-11-18T15:11:53;21.60;55.70
59162;DHT22;44942;48.936;8.260;2023-11-18T15:16:54;21.70;55.80
59162;DHT22;44942;48.936;8.260;2023-11-18T15:21:54;21.70;55.90
59162;DHT22;44942;48.936;8.260;2023-11-18T15:26:55;21.70;55.90
59162;DHT22;44942;48.936;8.260;2023-11-18T15:31:55;21.70;56.10
59162;DHT22;44942;48.936;8.260;2023-11-18T15:36:56;21.70;56.00
59162;DHT22;44942;48.936;8.260;2023-11-18T15:42:01;21.80;56.00
59162;DHT22;44942;48.936;8.260;2023-11-18T15:47:02;21.70;55.90
59162;DHT22;44942;48.936;8.260;2023-11-18T15:52:04;21.70;55.90
59162;DHT22;44942;48.936;8.260;2023-11-18T15:57:07;21.80;55.90
59162;DHT22;44942;48.936;8.260;2023-11-18T16:02:09;21.80;55.90
59162;DHT22;44942;48.936;8.260;2023-11-18T16:07:10;21.70;55.80
59162;DHT22;44942;48.936;8.260;2023-11-18T16:12:10;21.70;55.80
59162;DHT22;44942;48.936;8.260;2023-11-18T16:17:11;21.70;55.70
59162;DHT22;44942;48.936;8.260;2023-11-18T16:22:12;21.70;55.70
59162;DHT22;44942;48.936;8.260;2023-11-18T16:27:13;21.70;55.80
59162;DHT22;44942;48.936;8.260;2023-11-18T16:32:13;21.70;55.60
59162;DHT22;44942;48.936;8.260;2023-11-18T16:37:14;21.70;55.60
59162;DHT22;44942;48.936;8.260;2023-11-18T16:42:15;21.70;55.60
59162;DHT22;44942;48.936;8.260;2023-11-18T16:47:16;21.70;55.60
59162;DHT22;44942;48.936;8.260;2023-11-18T16:52:17;21.70;55.50
59162;DHT22;44942;48.936;8.260;2023-11-18T16:57:18;21.70;55.50
59162;DHT22;44942;48.936;8.260;2023-11-18T17:02:18;21.70;55.50
59162;DHT22;44942;48.936;8.260;2023-11-18T17:07:19;21.70;55.60
59162;DHT22;44942;48.936;8.260;2023-11-18T17:12:21;21.70;55.40
59162;DHT22;44942;48.936;8.260;2023-11-18T17:17:22;21.70;55.40
59162;DHT22;44942;48.936;8.260;2023-11-18T17:22:23;21.70;55.40
59162;DHT22;44942;48.936;8.260;2023-11-18T17:27:25;21.70;55.30
59162;DHT22;44942;48.936;8.260;2023-11-18T17:32:26;21.70;55.30
59162;DHT22;44942;48.936;8.260;2023-11-18T17:37:26;21.70;55.30
59162;DHT22;44942;48.936;8.260;2023-11-18T17:42:27;21.70;55.30
59162;DHT22;44942;48.936;8.260;2023-11-18T17:47:34;21.70;55.30
59162;DHT22;44942;48.936;8.260;2023-11-18T17:52:35;21.70;55.20
59162;DHT22;44942;48.936;8.260;2023-11-18T17:57:38;21.70;55.20
59162;DHT22;44942;48.936;8.260;2023-11-18T18:02:39;21.70;55.20
59162;DHT22;44942;48.936;8.260;2023-11-18T18:07:41;21.70;55.10
59162;DHT22;44942;48.936;8.260;2023-11-18T18:12:42;21.70;55.10
59162;DHT22;44942;48.936;8.260;2023-11-18T18:17:44;21.70;55.10
59162;DHT22;44942;48.936;8.260;2023-11-18T18:22:44;21.70;55.10
59162;DHT22;44942;48.936;8.260;2023-11-18T18:27:47;21.70;55.00
59162;DHT22;44942;48.936;8.260;2023-11-18T18:32:50;21.70;55.00
59162;DHT22;44942;48.936;8.260;2023-11-18T18:37:51;21.70;55.00
59162;DHT22;44942;48.936;8.260;2023-11-18T18:42:51;21.70;55.00
59162;DHT22;44942;48.936;8.260;2023-11-18T18:47:52;21.70;55.00
59162;DHT22;44942;48.936;8.260;2023-11-18T18:52:53;21.70;54.90
59162;DHT22;44942;48.936;8.260;2023-11-18T18:57:53;21.70;54.90
59162;DHT22;44942;48.936;8.260;2023-11-18T19:02:54;21.70;54.90
59162;DHT22;44942;48.936;8.260;2023-11-18T19:07:55;21.70;54.80
59162;DHT22;44942;48.936;8.260;2023-11-18T19:12:58;21.70;54.80
59162;DHT22;44942;48.936;8.260;2023-11-18T19:18:01;21.70;54.80
59162;DHT22;44942;48.936;8.260;2023-11-18T19:23:04;21.70;54.80
59162;DHT22;44942;48.936;8.260;2023-11-18T19:28:05;21.70;54.70
59162;DHT22;44942;48.936;8.260;2023-11-18T19:33:09;21.70;54.70
59162;DHT22;44942;48.936;8.260;2023-11-18T19:38:11;21.70;54.70
59162;DHT22;44942;48.936;8.260;2023-11-18T19:43:11;21.70;55.40
59162;DHT22;44942;48.936;8.260;2023-11-18T19:48:13;21.70;54.70
59162;DHT22;44942;48.936;8.260;2023-11-18T19:53:14;21.70;54.70
59162;DHT22;44942;48.936;8.260;2023-11-18T19:58:15;21.70;54.60
59162;DHT22;44942;48.936;8.260;2023-11-18T20:03:15;21.60;54.60
59162;DHT22;44942;48.936;8.260;2023-11-18T20:08:16;21.70;54.60
59162;DHT22;44942;48.936;8.260;2023-11-18T20:13:19;21.60;54.60
59162;DHT22;44942;48.936;8.260;2023-11-18T20:18:20;21.60;54.60
59162;DHT22;44942;48.936;8.260;2023-11-18T20:23:21;21.60;54.60
59162;DHT22;44942;48.936;8.260;2023-11-18T20:28:23;21.60;54.50
59162;DHT22;44942;48.936;8.260;2023-11-18T20:33:23;21.60;54.50
59162;DHT22;44942;48.936;8.260;2023-11-18T20:38:24;21.60;54.50
59162;DHT22;44942;48.936;8.260;2023-11-18T20:43:25;21.60;54.50
59162;DHT22;44942;48.936;8.260;2023-11-18T20:48:26;21.60;54.50
59162;DHT22;44942;48.936;8.260;2023-11-18T20:53:27;21.60;54.40
59162;DHT22;44942;48.936;8.260;2023-11-18T20:58:30;21.60;54.40
59162;DHT22;44942;48.936;8.260;2023-11-18T21:03:31;21.60;54.40
59162;DHT22;44942;48.936;8.260;2023-11-18T21:08:32;21.60;54.40
59162;DHT22;44942;48.936;8.260;2023-11-18T21:13:32;21.60;54.50
59162;DHT22;44942;48.936;8.260;2023-11-18T21:18:38;21.50;54.50
59162;DHT22;44942;48.936;8.260;2023-11-18T21:23:39;21.50;54.50
59162;DHT22;44942;48.936;8.260;2023-11-18T21:28:40;21.50;54.60
59162;DHT22;44942;48.936;8.260;2023-11-18T21:33:41;21.50;54.50
59162;DHT22;44942;48.936;8.260;2023-11-18T21:38:42;21.50;54.60
59162;DHT22;44942;48.936;8.260;2023-11-18T21:43:42;21.50;54.60
59162;DHT22;44942;48.936;8.260;2023-11-18T21:48:43;21.50;54.60
59162;DHT22;44942;48.936;8.260;2023-11-18T21:53:44;21.50;54.60
59162;DHT22;44942;48.936;8.260;2023-11-18T21:58:44;21.50;54.60
59162;DHT22;44942;48.936;8.260;2023-11-18T22:03:45;21.50;54.50
59162;DHT22;44942;48.936;8.260;2023-11-18T22:08:46;21.50;54.50
59162;DHT22;44942;48.936;8.260;2023-11-18T22:13:47;21.40;54.60
59162;DHT22;44942;48.936;8.260;2023-11-18T22:18:48;21.40;54.50
59162;DHT22;44942;48.936;8.260;2023-11-18T22:23:49;21.40;54.50
59162;DHT22;44942;48.936;8.260;2023-11-18T22:28:50;21.40;54.70
59162;DHT22;44942;48.936;8.260;2023-11-18T22:33:50;21.40;54.60
59162;DHT22;44942;48.936;8.260;2023-11-18T22:38:51;21.40;54.70
59162;DHT22;44942;48.936;8.260;2023-11-18T22:43:51;21.30;54.60
59162;DHT22;44942;48.936;8.260;2023-11-18T22:48:53;21.40;54.70
59162;DHT22;44942;48.936;8.260;2023-11-18T22:53:54;21.30;54.60
59162;DHT22;44942;48.936;8.260;2023-11-18T22:58:55;21.30;54.70
59162;DHT22;44942;48.936;8.260;2023-11-18T23:03:56;21.40;54.70
59162;DHT22;44942;48.936;8.260;2023-11-18T23:08:59;21.40;54.80
59162;DHT22;44942;48.936;8.260;2023-11-18T23:14:00;21.40;54.90
59162;DHT22;44942;48.936;8.260;2023-11-18T23:19:00;21.30;54.90
59162;DHT22;44942;48.936;8.260;2023-11-18T23:24:02;21.40;55.00
59162;DHT22;44942;48.936;8.260;2023-11-18T23:29:03;21.40;55.20
59162;DHT22;44942;48.936;8.260;2023-11-18T23:34:03;21.40;55.10
59162;DHT22;44942;48.936;8.260;2023-11-18T23:39:04;21.40;55.10
59162;DHT22;44942;48.936;8.260;2023-11-18T23:44:06;21.40;55.20
59162;DHT22;44942;48.936;8.260;2023-11-18T23:49:07;21.40;55.20
59162;DHT22;44942;48.936;8.260;2023-11-18T23:54:12;21.40;55.20
59162;DHT22;44942;48.936;8.260;2023-11-18T23:59:13;21.40;55.10
